Time;durP1;ratioP1;P1;durP2;ratioP2;P2;SDS_P1;SDS_P2;PMS_P1;PMS_P2;Temp;Humidity;BMP_temperature;BMP_pressure;BME280_temperature;BME280_humidity;BME280_pressure;Samples;Min_cycle;Max_cycle;Signal;HPM_P1;HPM_P2
2022/05/12 00:00:38;;;;;;;0.63;0.40;;;11.60;99.90;;;;;;5076972;28;20066;-72
2022/05/12 00:03:05;;;;;;;0.40;0.20;;;11.60;99.90;;;;;;5076923;28;20040;-72
2022/05/12 00:05:31;;;;;;;1.00;0.85;;;11.60;99.90;;;;;;5077039;28;20551;-72
2022/05/12 00:07:56;;;;;;;0.30;0.30;;;11.50;99.90;;;;;;5060072;28;20182;-72
2022/05/12 00:10:24;;;;;;;0.50;0.30;;;11.50;99.90;;;;;;5060031;28;20491;-72
2022/05/12 00:12:52;;;;;;;0.30;0.30;;;11.40;99.90;;;;;;5060580;28;20438;-72
2022/05/12 00:15:22;;;;;;;0.25;0.25;;;11.40;99.90;;;;;;5060250;28;20563;-72
2022/05/12 00:17:48;;;;;;;0.40;0.40;;;11.50;99.90;;;;;;5076917;28;20504;-72
2022/05/12 00:20:16;;;;;;;0.82;0.45;;;11.30;99.90;;;;;;5076523;28;20047;-72
2022/05/12 00:22:42;;;;;;;0.17;0.17;;;11.30;99.90;;;;;;5076718;28;20499;-72
2022/05/12 00:25:18;;;;;;;0.85;0.30;;;11.20;99.90;;;;;;5075634;28;20043;-72
2022/05/12 00:27:43;;;;;;;0.45;0.30;;;11.20;99.90;;;;;;5076444;28;20150;-72
2022/05/12 00:30:11;;;;;;;2.03;0.40;;;11.10;99.90;;;;;;5059748;28;20071;-72
2022/05/12 00:32:38;;;;;;;0.20;0.20;;;11.10;99.90;;;;;;5059994;28;20514;-72
2022/05/12 00:35:06;;;;;;;0.30;0.30;;;11.10;99.90;;;;;;5059850;28;20040;-72
2022/05/12 00:37:32;;;;;;;0.60;0.30;;;11.00;99.90;;;;;;5076262;28;20055;-72
2022/05/12 00:39:58;;;;;;;0.43;0.40;;;11.00;99.90;;;;;;5076428;28;20518;-72
2022/05/12 00:42:23;;;;;;;3.85;0.20;;;11.00;99.90;;;;;;5059447;28;20043;-72
2022/05/12 00:44:49;;;;;;;3.15;0.22;;;10.90;99.90;;;;;;5042766;28;20036;-72
2022/05/12 00:47:15;;;;;;;0.35;0.35;;;10.90;99.90;;;;;;5059449;28;20054;-72
2022/05/12 00:49:41;;;;;;;1.27;0.25;;;10.80;99.90;;;;;;5076060;28;20032;-72
2022/05/12 00:52:14;;;;;;;0.25;0.20;;;10.90;99.90;;;;;;5059378;28;20036;-72
2022/05/12 00:54:51;;;;;;;0.57;0.40;;;10.80;99.90;;;;;;5076142;28;20036;-72
2022/05/12 00:57:25;;;;;;;1.17;0.32;;;10.80;99.90;;;;;;5075824;28;20036;-72
2022/05/12 00:59:51;;;;;;;0.10;0.10;;;11.00;99.90;;;;;;5076031;28;20044;-72
2022/05/12 01:02:19;;;;;;;0.10;0.10;;;10.70;99.90;;;;;;5075645;28;20051;-72
2022/05/12 01:04:47;;;;;;;1.45;0.45;;;10.70;99.90;;;;;;5059178;28;20500;-72
2022/05/12 01:07:13;;;;;;;0.60;0.55;;;10.70;99.90;;;;;;5075417;28;20119;-72
2022/05/12 01:09:39;;;;;;;0.30;0.22;;;10.70;99.90;;;;;;5058838;28;20040;-72
2022/05/12 01:12:06;;;;;;;1.00;0.30;;;10.60;99.90;;;;;;5058952;28;20119;-72
2022/05/12 01:14:32;;;;;;;0.30;0.28;;;10.60;99.90;;;;;;5058951;28;20040;-72
2022/05/12 01:17:00;;;;;;;0.20;0.20;;;10.70;99.90;;;;;;5059070;28;20502;-72
2022/05/12 01:19:31;;;;;;;0.35;0.30;;;10.50;99.90;;;;;;5075719;28;20047;-72
2022/05/12 01:21:57;;;;;;;;;;;10.60;99.90;;;;;;5075837;28;20081;-72
2022/05/12 01:24:34;;;;;;;1.40;0.30;;;10.90;99.90;;;;;;5075650;28;19974;-72
2022/05/12 01:27:18;;;;;;;0.47;0.30;;;10.40;99.90;;;;;;5075350;28;20093;-72
2022/05/12 01:29:55;;;;;;;0.10;0.10;;;10.40;99.90;;;;;;5075492;28;20148;-72
2022/05/12 01:32:23;;;;;;;0.30;0.30;;;10.80;99.90;;;;;;5075477;28;20071;-72
2022/05/12 01:34:49;;;;;;;0.88;0.63;;;10.40;99.90;;;;;;5059044;28;20050;-72
2022/05/12 01:37:15;;;;;;;0.52;0.20;;;10.40;99.90;;;;;;5058310;28;20123;-72
2022/05/12 01:39:41;;;;;;;4.72;0.80;;;10.40;99.90;;;;;;5075701;28;20383;-72
2022/05/12 01:42:09;;;;;;;2.05;0.95;;;10.50;99.90;;;;;;5075106;28;20131;-72
2022/05/12 01:44:36;;;;;;;4.82;1.10;;;10.30;99.90;;;;;;5075176;28;20104;-72
2022/05/12 01:47:02;;;;;;;5.82;1.35;;;11.20;99.90;;;;;;5074942;28;20040;-72
2022/05/12 01:49:28;;;;;;;1.33;0.65;;;10.30;99.90;;;;;;5041670;28;20055;-72
2022/05/12 01:51:56;;;;;;;1.67;0.75;;;10.30;99.90;;;;;;5075306;28;20040;-72
2022/05/12 01:54:23;;;;;;;0.40;0.40;;;10.50;99.90;;;;;;5074955;28;20085;-72
2022/05/12 01:56:49;;;;;;;1.67;0.63;;;10.20;99.90;;;;;;5074905;28;20048;-72
2022/05/12 01:59:15;;;;;;;3.42;1.13;;;10.30;99.90;;;;;;5058213;28;20127;-72
2022/05/12 02:01:41;;;;;;;6.32;2.35;;;10.20;99.90;;;;;;5074798;28;20044;-72
2022/05/12 02:04:07;;;;;;;5.03;1.85;;;10.20;99.90;;;;;;5074885;28;20569;-72
2022/05/12 02:06:34;;;;;;;3.60;2.00;;;10.10;99.90;;;;;;5074752;28;20537;-72
2022/05/12 02:08:59;;;;;;;1.67;0.90;;;10.00;99.90;;;;;;5074733;28;20062;-72
2022/05/12 02:11:26;;;;;;;0.63;0.47;;;10.00;99.90;;;;;;5074762;28;20035;-72
2022/05/12 02:13:52;;;;;;;5.35;1.10;;;10.10;99.90;;;;;;5074727;28;20043;-72
2022/05/12 02:16:18;;;;;;;0.28;0.20;;;10.00;99.90;;;;;;5074700;28;20097;-72
2022/05/12 02:18:43;;;;;;;0.32;0.32;;;10.00;99.90;;;;;;5074725;28;20043;-72
2022/05/12 02:21:10;;;;;;;1.02;0.70;;;10.00;99.90;;;;;;5058311;28;20397;-72
2022/05/12 02:23:36;;;;;;;2.67;1.17;;;10.00;99.90;;;;;;5041317;28;20067;-72
2022/05/12 02:26:02;;;;;;;0.93;0.70;;;9.90;99.90;;;;;;5074652;28;20118;-72
2022/05/12 02:28:28;;;;;;;1.70;0.98;;;10.40;99.90;;;;;;5057874;28;20036;-72
2022/05/12 02:30:53;;;;;;;1.77;1.25;;;10.00;99.90;;;;;;5074541;28;20487;-72
2022/05/12 02:33:19;;;;;;;4.75;0.88;;;9.90;99.90;;;;;;5057842;28;20048;-72
2022/05/12 02:35:45;;;;;;;0.40;0.30;;;9.80;99.90;;;;;;5057885;28;20040;-72
2022/05/12 02:38:12;;;;;;;0.30;0.30;;;9.90;99.90;;;;;;5057779;28;20403;-72
2022/05/12 02:40:38;;;;;;;0.77;0.50;;;9.80;99.90;;;;;;5057821;28;20469;-71
2022/05/12 02:43:23;;;;;;;0.90;0.70;;;9.80;99.90;;;;;;5057789;28;20120;-72
2022/05/12 02:46:01;;;;;;;1.02;0.52;;;9.90;99.90;;;;;;5074321;28;20047;-72
2022/05/12 02:48:29;;;;;;;0.45;0.45;;;10.10;99.90;;;;;;5059075;28;20040;-72
2022/05/12 02:50:56;;;;;;;1.60;0.75;;;9.80;99.90;;;;;;5078457;28;20479;-72
2022/05/12 02:53:23;;;;;;;7.22;0.90;;;9.80;99.90;;;;;;5078149;28;20036;-72
2022/05/12 02:55:48;;;;;;;1.98;0.45;;;9.80;99.90;;;;;;5061412;28;20044;-72
2022/05/12 02:58:14;;;;;;;0.45;0.32;;;9.80;99.90;;;;;;5045125;28;20047;-72
2022/05/12 03:00:40;;;;;;;0.80;0.70;;;9.70;99.90;;;;;;5061412;28;20525;-72
2022/05/12 03:03:07;;;;;;;6.88;0.50;;;9.80;99.90;;;;;;5078043;28;20094;-72
2022/05/12 03:05:33;;;;;;;1.23;0.50;;;9.70;99.90;;;;;;5061380;28;20047;-72
2022/05/12 03:07:59;;;;;;;0.32;0.30;;;9.90;99.90;;;;;;5077986;28;20109;-72
2022/05/12 03:10:25;;;;;;;1.20;0.63;;;9.70;99.90;;;;;;5094777;28;20044;-72
2022/05/12 03:12:51;;;;;;;1.42;0.70;;;9.70;99.90;;;;;;5077778;28;20112;-72
2022/05/12 03:15:17;;;;;;;0.55;0.40;;;9.60;99.90;;;;;;5061333;28;20039;-72
2022/05/12 03:17:44;;;;;;;0.85;0.47;;;9.80;99.90;;;;;;5061135;28;20047;-72
2022/05/12 03:20:13;;;;;;;0.28;0.28;;;9.90;99.90;;;;;;5061284;28;20558;-72
2022/05/12 03:22:39;;;;;;;0.95;0.80;;;9.60;99.90;;;;;;5077934;28;20036;-72
2022/05/12 03:25:06;;;;;;;5.57;0.30;;;9.60;99.90;;;;;;5077533;28;20048;-72
2022/05/12 03:27:32;;;;;;;1.15;0.68;;;9.60;99.90;;;;;;5061135;28;20127;-72
2022/05/12 03:29:58;;;;;;;0.30;0.30;;;9.50;99.90;;;;;;5044277;28;20128;-72
2022/05/12 03:32:23;;;;;;;0.50;0.45;;;9.50;99.90;;;;;;5077687;28;20506;-72
2022/05/12 03:34:49;;;;;;;1.20;0.55;;;9.50;99.90;;;;;;5060689;28;20044;-71
2022/05/12 03:37:16;;;;;;;0.30;0.30;;;9.50;99.90;;;;;;5077428;28;20043;-72
2022/05/12 03:39:43;;;;;;;2.15;0.60;;;9.50;99.90;;;;;;5060644;28;20044;-72
2022/05/12 03:42:14;;;;;;;3.70;0.80;;;9.50;99.90;;;;;;5060606;28;20044;-72
2022/05/12 03:44:50;;;;;;;0.45;0.38;;;9.50;99.90;;;;;;5077131;28;20044;-72
2022/05/12 03:47:22;;;;;;;2.28;0.38;;;9.50;99.90;;;;;;5077563;28;20078;-72
2022/05/12 03:49:50;;;;;;;0.50;0.38;;;9.50;99.90;;;;;;5077142;28;20044;-72
2022/05/12 03:52:17;;;;;;;0.90;0.65;;;10.00;99.90;;;;;;5060581;28;20535;-72
2022/05/12 03:54:44;;;;;;;6.68;0.50;;;9.50;99.90;;;;;;5060870;28;20463;-72
2022/05/12 03:57:11;;;;;;;0.95;0.68;;;9.50;99.90;;;;;;5077260;28;20042;-72
2022/05/12 03:59:38;;;;;;;0.47;0.47;;;9.50;99.90;;;;;;5076869;28;20044;-73
2022/05/12 04:02:05;;;;;;;0.82;0.47;;;9.50;99.90;;;;;;5076980;28;20118;-72
2022/05/12 04:04:32;;;;;;;0.77;0.45;;;9.50;99.90;;;;;;5076761;28;20044;-72
2022/05/12 04:06:58;;;;;;;1.75;0.77;;;9.60;99.90;;;;;;5060270;28;20036;-72
2022/05/12 04:09:24;;;;;;;2.60;0.70;;;9.80;99.90;;;;;;5076684;28;20086;-72
2022/05/12 04:11:49;;;;;;;1.00;0.70;;;9.70;99.90;;;;;;5043639;28;20127;-71
2022/05/12 04:14:15;;;;;;;0.25;0.25;;;9.60;99.90;;;;;;5076829;28;20221;-71
2022/05/12 04:16:41;;;;;;;1.77;0.47;;;9.70;99.90;;;;;;5059906;28;20063;-71
2022/05/12 04:19:07;;;;;;;1.27;0.73;;;9.60;99.90;;;;;;5076621;28;20471;-71
2022/05/12 04:21:37;;;;;;;0.75;0.47;;;9.70;99.90;;;;;;5059944;28;20052;-71
2022/05/12 04:24:05;;;;;;;1.38;0.60;;;9.70;99.90;;;;;;5076749;28;20048;-71
2022/05/12 04:26:35;;;;;;;0.65;0.47;;;9.80;99.90;;;;;;5076613;28;20040;-72
2022/05/12 04:29:02;;;;;;;0.95;0.57;;;10.20;99.90;;;;;;5059978;28;20043;-72
2022/05/12 04:31:28;;;;;;;4.72;0.65;;;9.80;99.90;;;;;;5076284;28;20131;-72
2022/05/12 04:36:39;;;;;;;0.80;0.55;;;9.90;99.90;;;;;;5076069;28;20093;-71
2022/05/12 04:39:06;;;;;;;1.27;0.80;;;9.90;99.90;;;;;;5076174;28;20119;-71
2022/05/12 04:41:32;;;;;;;1.20;0.63;;;10.00;99.90;;;;;;5076358;28;20487;-71
2022/05/12 04:43:58;;;;;;;3.55;1.25;;;10.00;99.90;;;;;;5076075;28;20086;-71
2022/05/12 04:46:25;;;;;;;2.83;0.80;;;10.10;99.90;;;;;;5076005;28;20491;-72
2022/05/12 04:48:52;;;;;;;2.38;0.60;;;10.60;99.90;;;;;;5076028;28;20042;-71
2022/05/12 04:51:18;;;;;;;0.50;0.50;;;10.40;99.90;;;;;;5042690;28;20182;-71
2022/05/12 04:53:44;;;;;;;1.10;0.50;;;10.20;99.90;;;;;;5059156;28;20040;-72
2022/05/12 04:56:10;;;;;;;0.95;0.75;;;10.20;99.90;;;;;;5075917;28;20123;-72
2022/05/12 04:58:36;;;;;;;1.35;0.70;;;10.30;99.90;;;;;;5059173;28;20572;-72
2022/05/12 05:01:01;;;;;;;0.98;0.77;;;10.30;99.90;;;;;;5075683;28;20454;-72
2022/05/12 05:03:27;;;;;;;3.35;1.00;;;10.40;99.90;;;;;;5059067;28;20044;-71
2022/05/12 05:05:53;;;;;;;2.40;0.70;;;10.40;99.90;;;;;;5058953;28;20130;-71
2022/05/12 05:08:21;;;;;;;1.38;0.60;;;10.40;99.90;;;;;;5071672;28;20059;-71
2022/05/12 05:10:48;;;;;;;1.63;0.60;;;10.50;99.90;;;;;;5054492;28;20048;-72
2022/05/12 05:13:14;;;;;;;7.03;1.45;;;10.60;99.90;;;;;;5071397;28;20067;-72
2022/05/12 05:15:40;;;;;;;0.98;0.55;;;10.70;99.90;;;;;;5071387;28;20063;-72
2022/05/12 05:18:10;;;;;;;1.20;0.70;;;11.30;99.90;;;;;;5071282;28;20036;-71
2022/05/12 05:20:35;;;;;;;2.05;0.50;;;10.70;99.90;;;;;;5054626;28;20048;-73
2022/05/12 05:23:01;;;;;;;0.60;0.55;;;10.80;99.90;;;;;;5054574;28;20506;-72
2022/05/12 05:25:27;;;;;;;2.35;0.80;;;10.90;99.90;;;;;;5071071;28;20045;-72
2022/05/12 05:27:55;;;;;;;1.95;0.95;;;10.90;99.90;;;;;;5038013;28;20033;-74
2022/05/12 05:30:23;;;;;;;0.73;0.55;;;11.00;99.90;;;;;;5054892;28;20368;-76
2022/05/12 05:32:49;;;;;;;2.60;1.13;;;11.10;99.90;;;;;;5054470;28;20059;-75
2022/05/12 05:35:15;;;;;;;1.33;0.77;;;11.50;99.90;;;;;;5071060;28;20041;-74
2022/05/12 05:37:43;;;;;;;2.13;1.00;;;11.20;99.90;;;;;;5054736;28;20448;-73
2022/05/12 05:40:13;;;;;;;2.53;0.70;;;11.30;99.90;;;;;;5054603;28;20036;-73
2022/05/12 05:42:39;;;;;;;1.17;0.65;;;11.40;99.90;;;;;;5054472;28;20047;-73
2022/05/12 05:45:10;;;;;;;3.80;1.00;;;11.50;99.90;;;;;;5054191;28;20127;-75
2022/05/12 05:47:38;;;;;;;1.92;0.93;;;11.60;99.90;;;;;;5054963;28;20044;-74
2022/05/12 05:50:07;;;;;;;0.70;0.63;;;11.60;99.90;;;;;;5071201;28;20051;-74
2022/05/12 05:55:17;;;;;;;2.10;0.80;;;11.80;99.90;;;;;;5070722;28;20048;-74
2022/05/12 05:57:43;;;;;;;1.08;0.80;;;11.90;99.90;;;;;;5070952;28;20140;-74
2022/05/12 06:00:12;;;;;;;2.72;1.00;;;12.00;99.90;;;;;;5070710;28;20048;-74
2022/05/12 06:02:38;;;;;;;6.13;1.70;;;12.10;99.90;;;;;;5070835;28;20420;-72
2022/05/12 06:05:05;;;;;;;7.13;1.30;;;12.20;99.90;;;;;;5070881;28;20123;-75
2022/05/12 06:07:34;;;;;;;4.10;1.33;;;12.30;99.90;;;;;;5032904;28;1089148;-74
2022/05/12 06:10:01;;;;;;;5.47;1.17;;;12.40;99.90;;;;;;5074859;28;20148;-76
2022/05/12 06:12:27;;;;;;;2.38;1.15;;;12.50;99.90;;;;;;5058330;28;20118;-75
2022/05/12 06:14:53;;;;;;;1.70;1.08;;;12.50;99.90;;;;;;5058174;28;20464;-76
2022/05/12 06:17:19;;;;;;;1.67;1.40;;;12.60;99.90;;;;;;5057976;28;20134;-75
2022/05/12 06:19:45;;;;;;;2.53;1.30;;;13.00;99.90;;;;;;5075019;28;20039;-74
2022/05/12 06:22:10;;;;;;;4.70;1.25;;;12.80;99.90;;;;;;5074862;28;20036;-75
2022/05/12 06:24:38;;;;;;;2.13;1.45;;;12.80;99.90;;;;;;5061547;28;20032;-75
2022/05/12 06:27:04;;;;;;;3.75;1.67;;;12.80;99.90;;;;;;5078736;28;20071;-74
2022/05/12 06:29:30;;;;;;;1.40;1.30;;;12.80;99.90;;;;;;5079000;28;20368;-73
2022/05/12 06:31:56;;;;;;;2.53;1.10;;;13.00;99.90;;;;;;5062320;28;20043;-74
2022/05/12 06:34:21;;;;;;;2.75;1.40;;;13.10;99.90;;;;;;5062188;28;20152;-74
2022/05/12 06:36:47;;;;;;;3.80;1.30;;;13.30;99.90;;;;;;5062056;28;20131;-74
2022/05/12 06:39:13;;;;;;;2.03;1.02;;;13.30;99.90;;;;;;5061686;28;20075;-73
2022/05/12 06:41:38;;;;;;;1.65;1.00;;;13.90;99.90;;;;;;5061843;28;20083;-73
2022/05/12 06:44:05;;;;;;;1.98;1.20;;;13.40;99.90;;;;;;5061595;28;20047;-72
2022/05/12 06:46:32;;;;;;;2.17;1.23;;;13.50;99.90;;;;;;5061575;28;20044;-72
2022/05/12 06:48:58;;;;;;;2.10;1.08;;;13.50;99.90;;;;;;5061450;28;20055;-72
2022/05/12 06:51:23;;;;;;;3.58;1.48;;;13.50;99.90;;;;;;5078291;28;20044;-72
2022/05/12 06:53:49;;;;;;;2.97;1.42;;;13.60;99.90;;;;;;5061626;28;20040;-73
2022/05/12 06:56:15;;;;;;;3.08;1.42;;;13.70;99.90;;;;;;5061523;28;20039;-72
2022/05/12 06:58:41;;;;;;;8.98;1.20;;;13.80;99.90;;;;;;5077881;28;20044;-72
2022/05/12 07:01:09;;;;;;;1.98;1.15;;;14.00;99.90;;;;;;5077964;28;20048;-73
2022/05/12 07:03:34;;;;;;;1.20;0.90;;;14.10;99.90;;;;;;5044814;28;20052;-72
2022/05/12 07:06:01;;;;;;;3.33;1.23;;;14.20;99.90;;;;;;5061191;28;20411;-72
2022/05/12 07:08:26;;;;;;;5.25;1.00;;;14.30;99.90;;;;;;5077834;28;20087;-72
2022/05/12 07:10:52;;;;;;;5.68;1.67;;;14.30;99.90;;;;;;5061059;28;20075;-72
2022/05/12 07:13:20;;;;;;;3.15;1.30;;;14.40;99.90;;;;;;5077980;28;20395;-72
2022/05/12 07:15:50;;;;;;;1.27;0.82;;;14.50;99.90;;;;;;5077579;28;20079;-73
2022/05/12 07:18:19;;;;;;;2.05;1.13;;;14.50;99.90;;;;;;5077500;28;20086;-73
2022/05/12 07:28:59;;;;;;;1.60;0.63;;;15.00;99.90;;;;;;5063313;28;20051;-72
2022/05/12 07:31:25;;;;;;;3.47;1.23;;;15.10;99.90;;;;;;5060663;28;20035;-72
2022/05/12 07:33:51;;;;;;;1.48;0.80;;;15.10;99.90;;;;;;5077225;28;20046;-73
2022/05/12 07:36:25;;;;;;;3.47;0.90;;;15.20;99.90;;;;;;5060829;28;20062;-72
2022/05/12 07:38:52;;;;;;;2.35;0.80;;;15.30;99.90;;;;;;5077694;28;20384;-72
2022/05/12 07:41:19;;;;;;;1.40;0.85;;;15.40;99.90;;;;;;5060904;28;20526;-72
2022/05/12 07:43:46;;;;;;;1.05;0.90;;;15.40;99.90;;;;;;5060890;28;20040;-72
2022/05/12 07:46:16;;;;;;;1.52;0.70;;;15.60;99.90;;;;;;5077172;28;20048;-72
2022/05/12 07:48:42;;;;;;;1.88;0.57;;;15.70;99.90;;;;;;5060484;28;20131;-72
2022/05/12 07:51:08;;;;;;;0.63;0.50;;;15.90;99.90;;;;;;5077229;28;20127;-73
2022/05/12 07:53:34;;;;;;;0.65;0.32;;;15.80;99.90;;;;;;5077170;28;20047;-72
2022/05/12 07:56:01;;;;;;;2.45;0.40;;;15.80;99.90;;;;;;5077062;28;20126;-72
2022/05/12 07:58:26;;;;;;;3.05;0.50;;;15.90;99.90;;;;;;5060731;28;20414;-71
2022/05/12 08:00:53;;;;;;;0.40;0.40;;;16.00;99.90;;;;;;5060617;28;20136;-72
2022/05/12 08:03:20;;;;;;;1.40;0.65;;;16.00;99.90;;;;;;5060860;28;20119;-72
2022/05/12 08:05:45;;;;;;;1.50;0.43;;;16.10;99.90;;;;;;5060392;28;20040;-72
2022/05/12 08:08:12;;;;;;;0.82;0.45;;;16.20;99.90;;;;;;5076780;28;20059;-72
2022/05/12 08:10:38;;;;;;;1.80;0.68;;;16.30;99.90;;;;;;5060253;28;20052;-72
2022/05/12 08:13:04;;;;;;;1.38;0.52;;;16.30;99.90;;;;;;5060426;28;20028;-71
2022/05/12 08:15:30;;;;;;;2.22;0.82;;;16.40;99.90;;;;;;5076695;28;20040;-72
2022/05/12 08:17:57;;;;;;;2.83;0.57;;;16.30;99.90;;;;;;5076686;28;20040;-73
2022/05/12 08:20:23;;;;;;;0.52;0.40;;;16.50;99.90;;;;;;5076615;28;20036;-73
2022/05/12 08:22:49;;;;;;;1.00;0.40;;;16.60;99.90;;;;;;5076822;28;20501;-73
2022/05/12 08:25:15;;;;;;;0.22;0.22;;;16.70;99.90;;;;;;5059880;28;20079;-73
2022/05/12 08:27:41;;;;;;;0.40;0.40;;;16.90;99.90;;;;;;5076713;28;20456;-73
2022/05/12 08:30:10;;;;;;;1.10;0.30;;;17.00;99.90;;;;;;5059810;28;20044;-73
2022/05/12 08:32:39;;;;;;;3.03;0.40;;;17.30;99.90;;;;;;5094822;28;20483;-73
2022/05/12 08:35:06;;;;;;;0.50;0.40;;;17.30;99.90;;;;;;5059963;28;20135;-73
2022/05/12 08:37:31;;;;;;;3.17;0.60;;;17.30;99.90;;;;;;5043197;28;20036;-73
2022/05/12 08:39:57;;;;;;;1.10;0.75;;;17.40;99.90;;;;;;5059556;28;20097;-73
2022/05/12 08:42:44;;;;;;;1.30;0.40;;;17.40;99.90;;;;;;5059741;28;20101;-73
2022/05/12 08:45:12;;;;;;;1.08;0.57;;;17.30;99.90;;;;;;5076041;28;20117;-73
2022/05/12 08:47:44;;;;;;;0.85;0.40;;;17.00;99.90;;;;;;5075511;28;20043;-73
2022/05/12 08:50:19;;;;;;;1.80;0.45;;;17.20;99.90;;;;;;5059617;28;20524;-73
2022/05/12 08:53:01;;;;;;;1.35;0.38;;;17.30;99.90;;;;;;5075952;28;20036;-73
2022/05/12 08:55:53;;;;;;;3.20;0.75;;;17.30;99.90;;;;;;5059550;28;20567;-73
2022/05/12 08:58:47;;;;;;;3.92;0.70;;;17.20;99.90;;;;;;5059232;28;20032;-73
2022/05/12 09:01:21;;;;;;;1.67;0.43;;;17.20;99.90;;;;;;5056873;28;20478;-72
2022/05/12 09:04:01;;;;;;;0.30;0.30;;;16.90;99.90;;;;;;5075822;28;20499;-73
2022/05/12 09:06:50;;;;;;;0.63;0.40;;;17.00;99.90;;;;;;5058776;28;20051;-73
2022/05/12 09:09:28;;;;;;;0.82;0.40;;;16.90;99.90;;;;;;5061520;28;20497;-72
2022/05/12 09:12:05;;;;;;;0.50;0.45;;;16.80;99.90;;;;;;5075766;28;20487;-72
2022/05/12 09:14:36;;;;;;;2.53;0.95;;;16.80;99.90;;;;;;5075296;28;20040;-72
2022/05/12 09:17:03;;;;;;;1.30;0.40;;;17.00;99.90;;;;;;5075619;28;20048;-72
2022/05/12 09:19:29;;;;;;;2.33;0.60;;;17.20;99.90;;;;;;5058578;28;20050;-73
2022/05/12 09:21:56;;;;;;;4.72;0.55;;;17.50;99.90;;;;;;5075155;28;20460;-73
2022/05/12 09:24:22;;;;;;;4.30;0.75;;;17.70;99.90;;;;;;5058968;28;20051;-73
2022/05/12 09:26:51;;;;;;;5.15;1.10;;;17.80;99.90;;;;;;5058480;28;20066;-73
2022/05/12 09:29:24;;;;;;;0.52;0.43;;;17.60;99.90;;;;;;5075337;28;20054;-73
2022/05/12 09:31:55;;;;;;;1.58;0.60;;;17.40;99.90;;;;;;5058599;28;20118;-73
2022/05/12 09:34:30;;;;;;;0.63;0.40;;;17.50;99.90;;;;;;5058466;28;20066;-73
2022/05/12 09:36:56;;;;;;;1.55;0.70;;;17.60;99.90;;;;;;5075401;28;20487;-73
2022/05/12 09:39:39;;;;;;;0.35;0.35;;;17.80;99.90;;;;;;5042197;28;20048;-73
2022/05/12 09:42:11;;;;;;;1.63;0.60;;;17.80;99.90;;;;;;5075728;28;20475;-73
2022/05/12 09:44:37;;;;;;;3.05;0.50;;;17.80;99.90;;;;;;5074978;28;20048;-73
2022/05/12 09:47:13;;;;;;;0.85;0.57;;;17.90;99.90;;;;;;5058060;28;20047;-73
2022/05/12 09:49:44;;;;;;;1.55;0.55;;;18.00;99.90;;;;;;5074968;28;20123;-73
2022/05/12 09:52:23;;;;;;;3.17;0.68;;;18.10;99.90;;;;;;5074987;28;20047;-74
2022/05/12 09:55:07;;;;;;;0.47;0.47;;;18.40;99.90;;;;;;5074847;28;20044;-73
2022/05/12 09:57:35;;;;;;;2.30;0.60;;;18.50;99.90;;;;;;5074964;28;20372;-73
2022/05/12 10:00:03;;;;;;;1.55;0.90;;;18.60;99.90;;;;;;5041704;28;20032;-73
2022/05/12 10:08:24;;;;;;;1.20;0.80;;;18.70;99.00;;;;;;5074490;28;20105;-74
2022/05/12 10:10:58;;;;;;;0.90;0.68;;;18.80;99.20;;;;;;5057952;28;20036;-73
2022/05/12 10:13:36;;;;;;;1.02;0.60;;;18.80;98.80;;;;;;5058065;28;20082;-73
2022/05/12 10:16:03;;;;;;;0.85;0.40;;;18.70;98.30;;;;;;5057722;28;20044;-73
2022/05/12 10:18:47;;;;;;;2.22;0.50;;;18.70;98.20;;;;;;5074462;28;20036;-73
2022/05/12 10:21:45;;;;;;;0.50;0.50;;;18.60;97.50;;;;;;5074804;28;20399;-73
2022/05/12 10:24:33;;;;;;;0.57;0.40;;;18.60;96.90;;;;;;5057773;28;20051;-74
2022/05/12 10:27:27;;;;;;;0.63;0.57;;;18.30;96.90;;;;;;5074372;28;20044;-75
2022/05/12 10:29:53;;;;;;;0.30;0.30;;;18.10;97.00;;;;;;5074703;28;20066;-75
2022/05/12 10:32:39;;;;;;;1.30;0.45;;;18.30;98.60;;;;;;5074595;28;20032;-74
2022/05/12 10:35:32;;;;;;;1.10;0.70;;;18.50;97.40;;;;;;5057482;28;20047;-74
2022/05/12 10:38:09;;;;;;;2.15;0.55;;;18.30;96.30;;;;;;5074264;28;20043;-74
2022/05/12 10:40:37;;;;;;;0.32;0.32;;;18.10;96.20;;;;;;5074668;28;20392;-75
2022/05/12 10:43:19;;;;;;;1.05;0.55;;;18.20;95.80;;;;;;5074224;28;20402;-75
2022/05/12 10:46:11;;;;;;;1.55;0.90;;;18.20;96.30;;;;;;5057597;28;20044;-75
2022/05/12 10:48:54;;;;;;;1.42;0.70;;;18.10;96.60;;;;;;5074678;28;20036;-75
2022/05/12 10:51:22;;;;;;;1.75;0.65;;;17.90;96.80;;;;;;5057752;28;20044;-75
2022/05/12 10:54:06;;;;;;;0.65;0.40;;;18.00;97.00;;;;;;5074453;28;20036;-75
2022/05/12 10:56:46;;;;;;;0.40;0.35;;;18.00;96.20;;;;;;5057945;28;20487;-73
2022/05/12 10:59:37;;;;;;;0.70;0.52;;;17.90;95.80;;;;;;5091595;28;20364;-73
2022/05/12 11:02:18;;;;;;;0.30;0.30;;;18.00;94.70;;;;;;5074401;28;20059;-73
2022/05/12 11:04:55;;;;;;;0.30;0.30;;;18.10;94.90;;;;;;5057924;28;20051;-73
2022/05/12 11:07:33;;;;;;;0.60;0.60;;;18.20;92.70;;;;;;5074324;28;20044;-73
2022/05/12 11:10:22;;;;;;;1.35;0.47;;;18.30;93.90;;;;;;5059482;28;20051;-73
2022/05/12 11:12:52;;;;;;;1.58;0.52;;;18.50;94.60;;;;;;5077919;28;20040;-73
2022/05/12 11:15:30;;;;;;;0.40;0.30;;;18.60;93.60;;;;;;5077941;28;20426;-73
2022/05/12 11:18:01;;;;;;;1.13;0.50;;;18.60;93.80;;;;;;5077779;28;20044;-73
2022/05/12 11:20:40;;;;;;;4.30;0.70;;;18.60;94.00;;;;;;5077982;28;20510;-73
2022/05/12 11:23:21;;;;;;;0.30;0.30;;;18.50;92.90;;;;;;5061135;28;20093;-73
2022/05/12 11:26:16;;;;;;;4.50;0.57;;;18.60;93.10;;;;;;5077708;28;20040;-73
2022/05/12 11:31:47;;;;;;;2.80;0.40;;;18.50;92.50;;;;;;5077565;28;20035;-73
2022/05/12 11:34:22;;;;;;;0.25;0.25;;;18.20;92.00;;;;;;5077861;28;20028;-73
2022/05/12 11:36:51;;;;;;;0.10;0.10;;;18.30;92.90;;;;;;5077544;28;20044;-73
2022/05/12 11:39:25;;;;;;;0.40;0.40;;;18.30;92.90;;;;;;5077730;28;20048;-73
2022/05/12 11:42:25;;;;;;;5.18;0.50;;;18.50;92.60;;;;;;5060751;28;20035;-73
2022/05/12 11:45:01;;;;;;;0.20;0.20;;;18.60;92.40;;;;;;5034525;28;20376;-74
2022/05/12 11:48:01;;;;;;;0.57;0.30;;;18.70;92.10;;;;;;5060636;28;20040;-73
2022/05/12 11:50:50;;;;;;;1.38;0.80;;;18.60;90.60;;;;;;5060901;28;20083;-73
2022/05/12 11:53:22;;;;;;;3.50;0.50;;;18.60;91.50;;;;;;5060583;28;20043;-73
2022/05/12 11:56:07;;;;;;;1.00;0.50;;;18.70;91.40;;;;;;5077097;28;20048;-73
2022/05/12 11:58:42;;;;;;;0.30;0.30;;;18.60;91.50;;;;;;5060431;28;20193;-73
2022/05/12 12:01:14;;;;;;;0.40;0.40;;;18.30;90.60;;;;;;5077132;28;20043;-73
2022/05/12 12:03:52;;;;;;;0.28;0.28;;;18.40;91.30;;;;;;5077051;28;20483;-73
2022/05/12 12:06:38;;;;;;;0.80;0.35;;;18.60;92.20;;;;;;5076917;28;20052;-73
2022/05/12 12:09:38;;;;;;;4.20;0.65;;;18.80;91.60;;;;;;5056687;28;20063;-73
2022/05/12 12:12:10;;;;;;;1.83;0.40;;;18.70;91.00;;;;;;5057055;28;20041;-73
2022/05/12 12:14:50;;;;;;;0.57;0.40;;;18.60;91.00;;;;;;5056781;28;20036;-73
2022/05/12 12:17:25;;;;;;;1.90;0.60;;;18.50;91.30;;;;;;5073332;28;20059;-73
2022/05/12 12:19:55;;;;;;;0.80;0.38;;;18.50;91.10;;;;;;5056451;28;20110;-73
2022/05/12 12:22:40;;;;;;;0.22;0.22;;;18.60;90.50;;;;;;5072397;28;20115;-73
2022/05/12 12:25:08;;;;;;;3.08;0.60;;;18.70;88.10;;;;;;5056777;28;20512;-73
2022/05/12 12:27:52;;;;;;;0.57;0.40;;;18.70;89.70;;;;;;5073151;28;20040;-73
2022/05/12 12:30:21;;;;;;;0.73;0.45;;;18.90;89.60;;;;;;5056413;28;20032;-73
2022/05/12 12:33:17;;;;;;;1.45;0.50;;;19.10;90.70;;;;;;5073027;28;20048;-73
2022/05/12 12:36:00;;;;;;;0.98;0.35;;;19.30;90.40;;;;;;5073066;28;20133;-73
2022/05/12 12:38:44;;;;;;;1.08;0.75;;;19.20;85.60;;;;;;5072935;28;20055;-73
2022/05/12 12:41:30;;;;;;;0.20;0.20;;;19.30;87.50;;;;;;5072889;28;20044;-73
2022/05/12 12:44:00;;;;;;;1.33;0.40;;;19.60;89.10;;;;;;5055617;28;20052;-73
2022/05/12 12:46:30;;;;;;;3.00;0.40;;;19.70;88.60;;;;;;5055997;28;20121;-73
2022/05/12 12:49:20;;;;;;;0.32;0.32;;;19.60;90.00;;;;;;5072760;28;20040;-74
2022/05/12 12:52:05;;;;;;;0.37;0.30;;;19.40;87.20;;;;;;5056030;28;20094;-73
2022/05/12 12:57:24;;;;;;;0.68;0.40;;;19.40;88.80;;;;;;5072553;28;20092;-73
2022/05/12 12:59:52;;;;;;;0.68;0.40;;;19.10;86.20;;;;;;5072526;28;20119;-73
2022/05/12 13:02:28;;;;;;;0.30;0.30;;;19.00;86.30;;;;;;5072442;28;20123;-73
2022/05/12 13:04:56;;;;;;;0.30;0.20;;;19.00;85.10;;;;;;5072614;28;20048;-73
2022/05/12 13:07:28;;;;;;;0.60;0.50;;;18.80;84.40;;;;;;5039312;28;20037;-74
2022/05/12 13:09:56;;;;;;;0.20;0.20;;;18.60;84.20;;;;;;5072229;28;20048;-73
2022/05/12 13:12:26;;;;;;;0.85;0.50;;;18.60;85.60;;;;;;5055915;28;20483;-73
2022/05/12 13:14:53;;;;;;;1.13;0.30;;;18.70;86.30;;;;;;5072270;28;20123;-73
2022/05/12 13:17:36;;;;;;;0.82;0.40;;;18.60;83.70;;;;;;5055529;28;20093;-73
2022/05/12 13:20:04;;;;;;;0.25;0.25;;;18.70;86.10;;;;;;5055517;28;20033;-73
2022/05/12 13:22:53;;;;;;;2.72;0.77;;;19.00;87.90;;;;;;5072339;28;20037;-73
2022/05/12 13:25:23;;;;;;;0.20;0.20;;;19.30;84.00;;;;;;5072005;28;20576;-73
2022/05/12 13:27:50;;;;;;;0.55;0.30;;;19.70;85.90;;;;;;5055439;28;20039;-73
2022/05/12 13:30:20;;;;;;;0.25;0.20;;;19.90;83.20;;;;;;5072058;28;20036;-73